sensor_id;sensor_type;location;lat;lon;timestamp;temperature;humidity
14604;DHT22;7388;51.078;13.740;2022-09-29T00:01:04;11.50;47.30
14604;DHT22;7388;51.078;13.740;2022-09-29T00:03:31;11.50;47.20
14604;DHT22;7388;51.078;13.740;2022-09-29T00:05:57;11.50;47.10
14604;DHT22;7388;51.078;13.740;2022-09-29T00:08:25;11.50;47.10
14604;DHT22;7388;51.078;13.740;2022-09-29T00:10:51;11.50;46.90
14604;DHT22;7388;51.078;13.740;2022-09-29T00:13:18;11.40;46.90
14604;DHT22;7388;51.078;13.740;2022-09-29T00:15:44;11.40;46.80
14604;DHT22;7388;51.078;13.740;2022-09-29T00:18:10;11.40;47.00
14604;DHT22;7388;51.078;13.740;2022-09-29T00:20:37;11.40;47.10
14604;DHT22;7388;51.078;13.740;2022-09-29T00:23:03;11.30;47.00
14604;DHT22;7388;51.078;13.740;2022-09-29T00:25:29;11.30;47.10
14604;DHT22;7388;51.078;13.740;2022-09-29T00:27:55;11.40;47.10
14604;DHT22;7388;51.078;13.740;2022-09-29T00:30:21;11.30;47.20
14604;DHT22;7388;51.078;13.740;2022-09-29T00:32:46;11.30;47.20
14604;DHT22;7388;51.078;13.740;2022-09-29T00:35:12;11.30;47.20
14604;DHT22;7388;51.078;13.740;2022-09-29T00:37:38;11.30;47.00
14604;DHT22;7388;51.078;13.740;2022-09-29T00:40:05;11.30;47.00
14604;DHT22;7388;51.078;13.740;2022-09-29T00:42:31;11.30;47.00
14604;DHT22;7388;51.078;13.740;2022-09-29T00:45:16;11.20;46.80
14604;DHT22;7388;51.078;13.740;2022-09-29T00:47:45;11.20;46.70
14604;DHT22;7388;51.078;13.740;2022-09-29T00:50:43;11.20;46.60
14604;DHT22;7388;51.078;13.740;2022-09-29T00:53:12;11.10;46.70
14604;DHT22;7388;51.078;13.740;2022-09-29T00:55:47;11.10;47.10
14604;DHT22;7388;51.078;13.740;2022-09-29T00:58:34;11.10;46.80
14604;DHT22;7388;51.078;13.740;2022-09-29T01:01:03;11.10;46.70
14604;DHT22;7388;51.078;13.740;2022-09-29T01:03:32;11.00;46.70
14604;DHT22;7388;51.078;13.740;2022-09-29T01:06:04;11.00;46.70
14604;DHT22;7388;51.078;13.740;2022-09-29T01:11:09;10.90;46.60
14604;DHT22;7388;51.078;13.740;2022-09-29T01:13:37;10.90;46.70
14604;DHT22;7388;51.078;13.740;2022-09-29T01:16:04;10.90;46.70
14604;DHT22;7388;51.078;13.740;2022-09-29T01:18:30;10.80;46.60
14604;DHT22;7388;51.078;13.740;2022-09-29T01:21:13;10.80;46.70
14604;DHT22;7388;51.078;13.740;2022-09-29T01:27:06;10.90;46.80
14604;DHT22;7388;51.078;13.740;2022-09-29T01:29:41;10.90;46.90
14604;DHT22;7388;51.078;13.740;2022-09-29T01:40:18;10.80;47.20
14604;DHT22;7388;51.078;13.740;2022-09-29T01:43:11;10.80;47.20
14604;DHT22;7388;51.078;13.740;2022-09-29T01:45:46;10.80;47.20
14604;DHT22;7388;51.078;13.740;2022-09-29T01:48:41;10.80;47.10
14604;DHT22;7388;51.078;13.740;2022-09-29T01:51:12;10.80;47.00
14604;DHT22;7388;51.078;13.740;2022-09-29T01:53:54;10.80;46.90
14604;DHT22;7388;51.078;13.740;2022-09-29T01:56:35;10.70;47.10
14604;DHT22;7388;51.078;13.740;2022-09-29T02:01:41;10.70;47.10
14604;DHT22;7388;51.078;13.740;2022-09-29T02:04:14;10.70;47.00
14604;DHT22;7388;51.078;13.740;2022-09-29T02:06:48;10.60;47.00
14604;DHT22;7388;51.078;13.740;2022-09-29T02:09:24;10.60;46.90
14604;DHT22;7388;51.078;13.740;2022-09-29T02:11:53;10.60;47.30
14604;DHT22;7388;51.078;13.740;2022-09-29T02:14:24;10.60;46.90
14604;DHT22;7388;51.078;13.740;2022-09-29T02:16:58;10.60;46.90
14604;DHT22;7388;51.078;13.740;2022-09-29T02:19:31;10.60;46.80
14604;DHT22;7388;51.078;13.740;2022-09-29T02:21:58;10.50;46.90
14604;DHT22;7388;51.078;13.740;2022-09-29T02:24:24;10.50;46.90
14604;DHT22;7388;51.078;13.740;2022-09-29T02:26:51;10.50;46.80
14604;DHT22;7388;51.078;13.740;2022-09-29T02:29:17;10.50;47.00
14604;DHT22;7388;51.078;13.740;2022-09-29T02:31:45;10.50;47.30
14604;DHT22;7388;51.078;13.740;2022-09-29T02:34:15;10.50;47.00
14604;DHT22;7388;51.078;13.740;2022-09-29T02:36:56;10.50;46.90
14604;DHT22;7388;51.078;13.740;2022-09-29T02:40:12;10.50;46.90
14604;DHT22;7388;51.078;13.740;2022-09-29T02:45:39;10.40;46.70
14604;DHT22;7388;51.078;13.740;2022-09-29T02:53:51;10.30;46.90
14604;DHT22;7388;51.078;13.740;2022-09-29T02:56:51;10.30;47.10
14604;DHT22;7388;51.078;13.740;2022-09-29T02:59:41;10.30;47.30
14604;DHT22;7388;51.078;13.740;2022-09-29T03:02:09;10.30;47.40
14604;DHT22;7388;51.078;13.740;2022-09-29T03:04:35;10.30;47.60
14604;DHT22;7388;51.078;13.740;2022-09-29T03:07:01;10.40;47.70
14604;DHT22;7388;51.078;13.740;2022-09-29T03:09:26;10.40;47.70
14604;DHT22;7388;51.078;13.740;2022-09-29T03:11:52;10.40;47.80
14604;DHT22;7388;51.078;13.740;2022-09-29T03:14:18;10.40;47.90
14604;DHT22;7388;51.078;13.740;2022-09-29T03:16:44;10.50;48.10
14604;DHT22;7388;51.078;13.740;2022-09-29T03:19:10;10.50;48.30
14604;DHT22;7388;51.078;13.740;2022-09-29T03:21:35;10.50;48.20
14604;DHT22;7388;51.078;13.740;2022-09-29T03:24:01;10.60;48.20
14604;DHT22;7388;51.078;13.740;2022-09-29T03:26:27;10.60;48.30
14604;DHT22;7388;51.078;13.740;2022-09-29T03:28:54;10.70;48.30
14604;DHT22;7388;51.078;13.740;2022-09-29T03:31:20;10.70;48.40
14604;DHT22;7388;51.078;13.740;2022-09-29T03:33:46;10.80;48.40
14604;DHT22;7388;51.078;13.740;2022-09-29T03:36:12;10.80;48.30
14604;DHT22;7388;51.078;13.740;2022-09-29T03:38:38;10.80;48.30
14604;DHT22;7388;51.078;13.740;2022-09-29T03:41:05;10.80;48.30
14604;DHT22;7388;51.078;13.740;2022-09-29T03:43:31;10.80;48.50
14604;DHT22;7388;51.078;13.740;2022-09-29T03:45:57;10.80;48.40
14604;DHT22;7388;51.078;13.740;2022-09-29T03:48:23;10.90;48.70
14604;DHT22;7388;51.078;13.740;2022-09-29T03:50:50;10.90;48.70
14604;DHT22;7388;51.078;13.740;2022-09-29T03:53:16;10.90;48.60
14604;DHT22;7388;51.078;13.740;2022-09-29T03:55:46;11.00;48.70
14604;DHT22;7388;51.078;13.740;2022-09-29T03:58:12;11.00;48.70
14604;DHT22;7388;51.078;13.740;2022-09-29T04:00:38;11.00;48.70
14604;DHT22;7388;51.078;13.740;2022-09-29T04:03:04;11.10;48.80
14604;DHT22;7388;51.078;13.740;2022-09-29T04:05:31;11.10;48.90
14604;DHT22;7388;51.078;13.740;2022-09-29T04:07:59;11.10;48.80
14604;DHT22;7388;51.078;13.740;2022-09-29T04:10:25;11.10;48.70
14604;DHT22;7388;51.078;13.740;2022-09-29T04:12:51;11.20;48.60
14604;DHT22;7388;51.078;13.740;2022-09-29T04:15:17;11.20;48.50
14604;DHT22;7388;51.078;13.740;2022-09-29T04:17:42;11.20;48.40
14604;DHT22;7388;51.078;13.740;2022-09-29T04:20:08;11.20;48.40
14604;DHT22;7388;51.078;13.740;2022-09-29T04:22:34;11.30;48.40
14604;DHT22;7388;51.078;13.740;2022-09-29T04:25:00;11.20;48.40
14604;DHT22;7388;51.078;13.740;2022-09-29T04:27:26;11.20;48.40
14604;DHT22;7388;51.078;13.740;2022-09-29T04:29:51;11.20;48.50
14604;DHT22;7388;51.078;13.740;2022-09-29T04:32:17;11.20;48.50
14604;DHT22;7388;51.078;13.740;2022-09-29T04:34:43;11.30;48.70
14604;DHT22;7388;51.078;13.740;2022-09-29T04:37:09;11.30;48.80
14604;DHT22;7388;51.078;13.740;2022-09-29T04:39:37;11.30;48.80
14604;DHT22;7388;51.078;13.740;2022-09-29T04:42:03;11.30;48.80
14604;DHT22;7388;51.078;13.740;2022-09-29T04:44:29;11.40;48.80
14604;DHT22;7388;51.078;13.740;2022-09-29T04:46:55;11.40;48.90
14604;DHT22;7388;51.078;13.740;2022-09-29T04:49:21;11.40;48.80
14604;DHT22;7388;51.078;13.740;2022-09-29T04:51:47;11.40;48.80
14604;DHT22;7388;51.078;13.740;2022-09-29T04:54:13;11.40;48.80
14604;DHT22;7388;51.078;13.740;2022-09-29T04:56:39;11.50;49.00
14604;DHT22;7388;51.078;13.740;2022-09-29T04:59:05;11.50;48.90
14604;DHT22;7388;51.078;13.740;2022-09-29T05:01:31;11.50;48.90
14604;DHT22;7388;51.078;13.740;2022-09-29T05:03:57;11.50;49.00
14604;DHT22;7388;51.078;13.740;2022-09-29T05:06:22;11.50;49.00
14604;DHT22;7388;51.078;13.740;2022-09-29T05:08:48;11.50;49.10
14604;DHT22;7388;51.078;13.740;2022-09-29T05:11:14;11.50;49.10
14604;DHT22;7388;51.078;13.740;2022-09-29T05:13:40;11.60;49.10
14604;DHT22;7388;51.078;13.740;2022-09-29T05:16:06;11.50;49.10
14604;DHT22;7388;51.078;13.740;2022-09-29T05:18:33;11.60;49.10
14604;DHT22;7388;51.078;13.740;2022-09-29T05:21:04;11.60;49.10
14604;DHT22;7388;51.078;13.740;2022-09-29T05:23:30;11.60;49.10
14604;DHT22;7388;51.078;13.740;2022-09-29T05:26:00;11.60;49.10
14604;DHT22;7388;51.078;13.740;2022-09-29T05:28:26;11.60;49.10
14604;DHT22;7388;51.078;13.740;2022-09-29T05:30:52;11.70;49.20
14604;DHT22;7388;51.078;13.740;2022-09-29T05:33:18;11.60;49.10
14604;DHT22;7388;51.078;13.740;2022-09-29T05:35:44;11.70;49.20
14604;DHT22;7388;51.078;13.740;2022-09-29T05:38:09;11.70;49.20
14604;DHT22;7388;51.078;13.740;2022-09-29T05:40:35;11.70;49.30
14604;DHT22;7388;51.078;13.740;2022-09-29T05:43:01;11.70;49.20
14604;DHT22;7388;51.078;13.740;2022-09-29T05:45:28;11.80;49.20
14604;DHT22;7388;51.078;13.740;2022-09-29T05:47:53;11.80;49.20
14604;DHT22;7388;51.078;13.740;2022-09-29T05:50:19;11.80;49.20
14604;DHT22;7388;51.078;13.740;2022-09-29T05:52:45;11.80;49.20
14604;DHT22;7388;51.078;13.740;2022-09-29T05:55:15;11.80;49.20
14604;DHT22;7388;51.078;13.740;2022-09-29T05:57:41;11.80;49.40
14604;DHT22;7388;51.078;13.740;2022-09-29T06:00:07;11.90;49.50
14604;DHT22;7388;51.078;13.740;2022-09-29T06:02:33;11.90;49.50
14604;DHT22;7388;51.078;13.740;2022-09-29T06:04:59;11.90;49.60
14604;DHT22;7388;51.078;13.740;2022-09-29T06:07:25;11.90;49.40
14604;DHT22;7388;51.078;13.740;2022-09-29T06:09:51;11.90;49.50
14604;DHT22;7388;51.078;13.740;2022-09-29T06:12:17;12.00;49.40
14604;DHT22;7388;51.078;13.740;2022-09-29T06:14:43;12.00;49.40
14604;DHT22;7388;51.078;13.740;2022-09-29T06:17:08;12.10;49.50
14604;DHT22;7388;51.078;13.740;2022-09-29T06:19:34;12.10;49.50
14604;DHT22;7388;51.078;13.740;2022-09-29T06:22:00;12.10;49.70
14604;DHT22;7388;51.078;13.740;2022-09-29T06:24:26;12.10;49.70
14604;DHT22;7388;51.078;13.740;2022-09-29T06:26:51;12.20;49.60
14604;DHT22;7388;51.078;13.740;2022-09-29T06:29:17;12.20;49.70
14604;DHT22;7388;51.078;13.740;2022-09-29T06:31:43;12.30;49.70
14604;DHT22;7388;51.078;13.740;2022-09-29T06:34:09;12.30;49.70
14604;DHT22;7388;51.078;13.740;2022-09-29T06:36:41;12.30;49.70
14604;DHT22;7388;51.078;13.740;2022-09-29T06:39:26;12.40;49.80
14604;DHT22;7388;51.078;13.740;2022-09-29T06:41:52;12.40;49.80
14604;DHT22;7388;51.078;13.740;2022-09-29T06:44:22;12.50;50.00
14604;DHT22;7388;51.078;13.740;2022-09-29T06:46:49;12.60;49.90
14604;DHT22;7388;51.078;13.740;2022-09-29T06:49:16;12.70;50.00
14604;DHT22;7388;51.078;13.740;2022-09-29T06:51:42;12.80;49.80
14604;DHT22;7388;51.078;13.740;2022-09-29T06:54:10;12.90;49.70
14604;DHT22;7388;51.078;13.740;2022-09-29T06:56:36;12.90;49.40
14604;DHT22;7388;51.078;13.740;2022-09-29T06:59:01;13.00;49.30
14604;DHT22;7388;51.078;13.740;2022-09-29T07:01:27;13.10;49.50
14604;DHT22;7388;51.078;13.740;2022-09-29T07:03:53;13.00;49.40
14604;DHT22;7388;51.078;13.740;2022-09-29T07:06:19;13.10;49.50
14604;DHT22;7388;51.078;13.740;2022-09-29T07:08:45;13.20;49.40
14604;DHT22;7388;51.078;13.740;2022-09-29T07:11:11;13.20;49.40
14604;DHT22;7388;51.078;13.740;2022-09-29T07:13:37;13.40;49.50
14604;DHT22;7388;51.078;13.740;2022-09-29T07:16:08;13.40;49.40
14604;DHT22;7388;51.078;13.740;2022-09-29T07:18:35;13.50;49.10
14604;DHT22;7388;51.078;13.740;2022-09-29T07:21:06;13.50;48.90
14604;DHT22;7388;51.078;13.740;2022-09-29T07:23:34;13.50;49.10
14604;DHT22;7388;51.078;13.740;2022-09-29T07:26:01;13.70;49.20
14604;DHT22;7388;51.078;13.740;2022-09-29T07:28:28;13.80;49.20
14604;DHT22;7388;51.078;13.740;2022-09-29T07:31:10;13.90;49.30
14604;DHT22;7388;51.078;13.740;2022-09-29T07:33:36;14.00;48.90
14604;DHT22;7388;51.078;13.740;2022-09-29T07:36:02;14.10;48.90
14604;DHT22;7388;51.078;13.740;2022-09-29T07:38:29;14.20;49.50
14604;DHT22;7388;51.078;13.740;2022-09-29T07:41:06;14.30;48.90
14604;DHT22;7388;51.078;13.740;2022-09-29T07:43:33;14.40;48.90
14604;DHT22;7388;51.078;13.740;2022-09-29T07:45:59;14.60;48.90
14604;DHT22;7388;51.078;13.740;2022-09-29T07:48:25;14.70;48.90
14604;DHT22;7388;51.078;13.740;2022-09-29T07:50:52;14.80;48.80
14604;DHT22;7388;51.078;13.740;2022-09-29T07:53:17;14.80;46.80
14604;DHT22;7388;51.078;13.740;2022-09-29T07:55:43;14.80;47.30
14604;DHT22;7388;51.078;13.740;2022-09-29T07:58:09;14.80;47.50
14604;DHT22;7388;51.078;13.740;2022-09-29T08:00:35;14.90;47.70
14604;DHT22;7388;51.078;13.740;2022-09-29T08:03:04;15.00;47.70
14604;DHT22;7388;51.078;13.740;2022-09-29T08:05:32;15.10;47.40
14604;DHT22;7388;51.078;13.740;2022-09-29T08:08:02;15.10;47.40
14604;DHT22;7388;51.078;13.740;2022-09-29T08:10:30;15.20;47.30
14604;DHT22;7388;51.078;13.740;2022-09-29T08:12:56;15.30;47.40
14604;DHT22;7388;51.078;13.740;2022-09-29T08:15:23;15.20;46.90
14604;DHT22;7388;51.078;13.740;2022-09-29T08:17:52;15.20;45.50
14604;DHT22;7388;51.078;13.740;2022-09-29T08:20:18;15.20;46.40
14604;DHT22;7388;51.078;13.740;2022-09-29T08:22:44;15.30;47.00
14604;DHT22;7388;51.078;13.740;2022-09-29T08:25:11;15.40;46.50
14604;DHT22;7388;51.078;13.740;2022-09-29T08:27:37;15.50;46.50
14604;DHT22;7388;51.078;13.740;2022-09-29T08:30:03;15.60;45.90
14604;DHT22;7388;51.078;13.740;2022-09-29T08:32:30;15.70;46.60
14604;DHT22;7388;51.078;13.740;2022-09-29T08:34:56;15.80;46.70
14604;DHT22;7388;51.078;13.740;2022-09-29T08:37:22;15.90;46.60
14604;DHT22;7388;51.078;13.740;2022-09-29T08:39:47;16.00;46.20
14604;DHT22;7388;51.078;13.740;2022-09-29T08:44:52;16.20;46.50
14604;DHT22;7388;51.078;13.740;2022-09-29T08:47:28;16.30;46.70
14604;DHT22;7388;51.078;13.740;2022-09-29T08:52:36;16.60;46.40
14604;DHT22;7388;51.078;13.740;2022-09-29T08:57:41;16.80;44.20
14604;DHT22;7388;51.078;13.740;2022-09-29T09:00:15;16.90;45.30
14604;DHT22;7388;51.078;13.740;2022-09-29T09:02:58;17.00;44.90
14604;DHT22;7388;51.078;13.740;2022-09-29T09:05:50;17.10;44.10
14604;DHT22;7388;51.078;13.740;2022-09-29T09:22:20;17.70;42.40
14604;DHT22;7388;51.078;13.740;2022-09-29T09:25:05;17.80;43.10
14604;DHT22;7388;51.078;13.740;2022-09-29T09:27:36;18.00;43.30
14604;DHT22;7388;51.078;13.740;2022-09-29T09:30:11;18.10;43.00
14604;DHT22;7388;51.078;13.740;2022-09-29T09:32:44;18.20;42.70
14604;DHT22;7388;51.078;13.740;2022-09-29T09:37:47;18.30;41.20
14604;DHT22;7388;51.078;13.740;2022-09-29T09:40:26;18.30;41.70
14604;DHT22;7388;51.078;13.740;2022-09-29T09:43:05;18.40;41.20
14604;DHT22;7388;51.078;13.740;2022-09-29T09:45:48;18.60;41.30
14604;DHT22;7388;51.078;13.740;2022-09-29T09:48:36;18.60;41.10
14604;DHT22;7388;51.078;13.740;2022-09-29T09:51:25;18.80;39.90
14604;DHT22;7388;51.078;13.740;2022-09-29T09:53:54;18.90;40.70
14604;DHT22;7388;51.078;13.740;2022-09-29T09:59:25;18.80;36.90
14604;DHT22;7388;51.078;13.740;2022-09-29T10:01:55;18.90;39.70
14604;DHT22;7388;51.078;13.740;2022-09-29T10:04:21;19.00;40.20
14604;DHT22;7388;51.078;13.740;2022-09-29T10:06:51;19.20;40.30
14604;DHT22;7388;51.078;13.740;2022-09-29T10:09:17;19.30;38.40
14604;DHT22;7388;51.078;13.740;2022-09-29T10:11:44;19.40;39.10
14604;DHT22;7388;51.078;13.740;2022-09-29T10:14:30;19.40;38.30
14604;DHT22;7388;51.078;13.740;2022-09-29T10:17:07;19.40;37.90
14604;DHT22;7388;51.078;13.740;2022-09-29T10:20:03;19.50;38.10
14604;DHT22;7388;51.078;13.740;2022-09-29T10:22:31;19.50;37.40
14604;DHT22;7388;51.078;13.740;2022-09-29T10:25:17;19.50;38.10
14604;DHT22;7388;51.078;13.740;2022-09-29T10:27:49;19.60;39.10
14604;DHT22;7388;51.078;13.740;2022-09-29T10:30:38;19.60;39.20
14604;DHT22;7388;51.078;13.740;2022-09-29T10:33:04;19.50;38.10
14604;DHT22;7388;51.078;13.740;2022-09-29T10:35:38;19.40;38.40
14604;DHT22;7388;51.078;13.740;2022-09-29T10:38:13;19.40;38.50
14604;DHT22;7388;51.078;13.740;2022-09-29T10:40:54;19.30;38.10
14604;DHT22;7388;51.078;13.740;2022-09-29T10:43:33;19.20;38.00
14604;DHT22;7388;51.078;13.740;2022-09-29T10:46:00;19.20;37.30
14604;DHT22;7388;51.078;13.740;2022-09-29T10:48:26;19.20;38.60
14604;DHT22;7388;51.078;13.740;2022-09-29T10:50:55;19.30;38.00
14604;DHT22;7388;51.078;13.740;2022-09-29T10:53:41;19.20;36.80
14604;DHT22;7388;51.078;13.740;2022-09-29T10:56:21;19.20;36.90
14604;DHT22;7388;51.078;13.740;2022-09-29T10:58:54;19.20;37.90
14604;DHT22;7388;51.078;13.740;2022-09-29T11:01:22;19.10;36.60
14604;DHT22;7388;51.078;13.740;2022-09-29T11:04:02;19.20;37.50
14604;DHT22;7388;51.078;13.740;2022-09-29T11:06:30;19.30;37.70
14604;DHT22;7388;51.078;13.740;2022-09-29T11:16:58;20.00;37.20
14604;DHT22;7388;51.078;13.740;2022-09-29T11:19:25;20.00;36.50
14604;DHT22;7388;51.078;13.740;2022-09-29T11:22:27;20.00;36.00
14604;DHT22;7388;51.078;13.740;2022-09-29T11:30:15;19.90;37.20
14604;DHT22;7388;51.078;13.740;2022-09-29T11:42:02;20.50;36.20
14604;DHT22;7388;51.078;13.740;2022-09-29T11:47:25;20.40;34.90
14604;DHT22;7388;51.078;13.740;2022-09-29T11:50:02;20.30;34.30
14604;DHT22;7388;51.078;13.740;2022-09-29T12:17:14;19.80;33.40
14604;DHT22;7388;51.078;13.740;2022-09-29T12:19:44;19.90;33.90
14604;DHT22;7388;51.078;13.740;2022-09-29T12:22:16;19.90;34.20
14604;DHT22;7388;51.078;13.740;2022-09-29T12:24:49;20.00;33.60
14604;DHT22;7388;51.078;13.740;2022-09-29T12:27:34;20.10;34.50
14604;DHT22;7388;51.078;13.740;2022-09-29T12:32:39;20.10;32.20
14604;DHT22;7388;51.078;13.740;2022-09-29T12:35:15;20.10;33.90
14604;DHT22;7388;51.078;13.740;2022-09-29T12:38:17;20.00;33.90
14604;DHT22;7388;51.078;13.740;2022-09-29T12:43:44;19.80;34.60
14604;DHT22;7388;51.078;13.740;2022-09-29T12:46:23;19.80;34.70
14604;DHT22;7388;51.078;13.740;2022-09-29T12:51:50;19.70;35.10
14604;DHT22;7388;51.078;13.740;2022-09-29T12:54:21;19.60;32.80
14604;DHT22;7388;51.078;13.740;2022-09-29T12:57:03;19.50;32.90
14604;DHT22;7388;51.078;13.740;2022-09-29T13:26:40;19.30;35.40
14604;DHT22;7388;51.078;13.740;2022-09-29T13:29:14;19.30;36.40
14604;DHT22;7388;51.078;13.740;2022-09-29T13:31:42;19.30;37.00
14604;DHT22;7388;51.078;13.740;2022-09-29T13:36:53;19.40;36.30
14604;DHT22;7388;51.078;13.740;2022-09-29T13:39:30;19.40;35.80
14604;DHT22;7388;51.078;13.740;2022-09-29T13:47:49;19.50;37.00
14604;DHT22;7388;51.078;13.740;2022-09-29T13:56:24;19.50;35.90
14604;DHT22;7388;51.078;13.740;2022-09-29T14:01:29;19.50;36.20
14604;DHT22;7388;51.078;13.740;2022-09-29T14:03:56;19.50;36.30
14604;DHT22;7388;51.078;13.740;2022-09-29T14:06:25;19.50;35.20
14604;DHT22;7388;51.078;13.740;2022-09-29T14:09:04;19.50;36.20
14604;DHT22;7388;51.078;13.740;2022-09-29T14:14:12;19.60;36.20
14604;DHT22;7388;51.078;13.740;2022-09-29T14:33:13;20.80;36.10
14604;DHT22;7388;51.078;13.740;2022-09-29T14:36:28;20.90;34.50
14604;DHT22;7388;51.078;13.740;2022-09-29T14:38:39;21.00;34.60
14604;DHT22;7388;51.078;13.740;2022-09-29T14:43:47;20.80;35.30
14604;DHT22;7388;51.078;13.740;2022-09-29T14:49:54;20.60;35.40
14604;DHT22;7388;51.078;13.740;2022-09-29T14:55:09;20.10;34.20
14604;DHT22;7388;51.078;13.740;2022-09-29T15:03:32;19.70;33.50
14604;DHT22;7388;51.078;13.740;2022-09-29T15:06:26;19.50;34.00
14604;DHT22;7388;51.078;13.740;2022-09-29T15:08:59;19.40;34.30
14604;DHT22;7388;51.078;13.740;2022-09-29T15:11:48;19.30;35.60
14604;DHT22;7388;51.078;13.740;2022-09-29T15:14:24;19.30;34.70
14604;DHT22;7388;51.078;13.740;2022-09-29T15:22:51;19.10;33.60
14604;DHT22;7388;51.078;13.740;2022-09-29T15:25:37;19.10;35.40
14604;DHT22;7388;51.078;13.740;2022-09-29T15:28:35;19.00;35.80
14604;DHT22;7388;51.078;13.740;2022-09-29T15:31:05;19.00;36.50
14604;DHT22;7388;51.078;13.740;2022-09-29T15:33:36;18.90;37.50
14604;DHT22;7388;51.078;13.740;2022-09-29T15:36:05;18.90;37.10
14604;DHT22;7388;51.078;13.740;2022-09-29T15:38:36;18.90;37.00
14604;DHT22;7388;51.078;13.740;2022-09-29T15:41:13;18.90;36.90
14604;DHT22;7388;51.078;13.740;2022-09-29T15:44:00;18.80;36.90
14604;DHT22;7388;51.078;13.740;2022-09-29T15:46:34;18.80;36.90
14604;DHT22;7388;51.078;13.740;2022-09-29T15:49:36;18.70;37.40
14604;DHT22;7388;51.078;13.740;2022-09-29T15:52:01;18.70;37.60
14604;DHT22;7388;51.078;13.740;2022-09-29T15:54:38;18.60;37.80
14604;DHT22;7388;51.078;13.740;2022-09-29T16:03:11;18.50;37.30
14604;DHT22;7388;51.078;13.740;2022-09-29T16:05:41;18.40;36.70
14604;DHT22;7388;51.078;13.740;2022-09-29T16:08:15;18.30;37.10
14604;DHT22;7388;51.078;13.740;2022-09-29T16:13:31;18.20;38.00
14604;DHT22;7388;51.078;13.740;2022-09-29T16:16:16;18.20;38.00
14604;DHT22;7388;51.078;13.740;2022-09-29T16:18:48;18.20;37.90
14604;DHT22;7388;51.078;13.740;2022-09-29T16:21:20;18.20;38.40
14604;DHT22;7388;51.078;13.740;2022-09-29T16:24:11;18.20;38.60
14604;DHT22;7388;51.078;13.740;2022-09-29T16:26:58;18.10;39.00
14604;DHT22;7388;51.078;13.740;2022-09-29T16:31:55;18.00;39.30
14604;DHT22;7388;51.078;13.740;2022-09-29T16:34:26;18.00;39.10
14604;DHT22;7388;51.078;13.740;2022-09-29T16:39:32;17.90;39.10
14604;DHT22;7388;51.078;13.740;2022-09-29T16:42:04;17.90;39.20
14604;DHT22;7388;51.078;13.740;2022-09-29T16:44:39;17.90;39.30
14604;DHT22;7388;51.078;13.740;2022-09-29T16:47:26;17.80;39.60
14604;DHT22;7388;51.078;13.740;2022-09-29T16:49:59;17.80;39.50
14604;DHT22;7388;51.078;13.740;2022-09-29T16:52:48;17.70;39.70
14604;DHT22;7388;51.078;13.740;2022-09-29T16:58:05;17.60;40.20
14604;DHT22;7388;51.078;13.740;2022-09-29T17:00:33;17.50;40.40
14604;DHT22;7388;51.078;13.740;2022-09-29T17:03:00;17.50;40.60
14604;DHT22;7388;51.078;13.740;2022-09-29T17:05:37;17.40;41.00
14604;DHT22;7388;51.078;13.740;2022-09-29T17:08:15;17.40;41.10
14604;DHT22;7388;51.078;13.740;2022-09-29T17:10:42;17.40;41.80
14604;DHT22;7388;51.078;13.740;2022-09-29T17:13:11;17.30;41.20
14604;DHT22;7388;51.078;13.740;2022-09-29T17:15:40;17.20;41.00
14604;DHT22;7388;51.078;13.740;2022-09-29T17:18:10;17.20;41.00
14604;DHT22;7388;51.078;13.740;2022-09-29T17:20:36;17.10;41.10
14604;DHT22;7388;51.078;13.740;2022-09-29T17:23:02;17.10;41.20
14604;DHT22;7388;51.078;13.740;2022-09-29T17:25:30;17.10;41.40
14604;DHT22;7388;51.078;13.740;2022-09-29T17:27:56;17.10;41.30
14604;DHT22;7388;51.078;13.740;2022-09-29T17:30:38;17.00;41.30
14604;DHT22;7388;51.078;13.740;2022-09-29T17:33:04;17.00;41.50
14604;DHT22;7388;51.078;13.740;2022-09-29T17:35:33;17.00;41.70
14604;DHT22;7388;51.078;13.740;2022-09-29T17:38:01;16.90;41.90
14604;DHT22;7388;51.078;13.740;2022-09-29T17:41:01;16.90;42.10
14604;DHT22;7388;51.078;13.740;2022-09-29T17:43:28;16.80;42.20
14604;DHT22;7388;51.078;13.740;2022-09-29T17:45:56;16.70;42.40
14604;DHT22;7388;51.078;13.740;2022-09-29T17:48:24;16.60;42.60
14604;DHT22;7388;51.078;13.740;2022-09-29T17:50:50;16.60;42.60
14604;DHT22;7388;51.078;13.740;2022-09-29T17:53:21;16.60;42.90
14604;DHT22;7388;51.078;13.740;2022-09-29T17:55:48;16.50;42.90
14604;DHT22;7388;51.078;13.740;2022-09-29T17:58:16;16.50;43.00
14604;DHT22;7388;51.078;13.740;2022-09-29T18:00:47;16.40;43.10
14604;DHT22;7388;51.078;13.740;2022-09-29T18:03:15;16.30;43.30
14604;DHT22;7388;51.078;13.740;2022-09-29T18:05:44;16.30;43.30
14604;DHT22;7388;51.078;13.740;2022-09-29T18:08:16;16.20;43.30
14604;DHT22;7388;51.078;13.740;2022-09-29T18:10:53;16.20;43.40
14604;DHT22;7388;51.078;13.740;2022-09-29T18:13:21;16.10;43.50
14604;DHT22;7388;51.078;13.740;2022-09-29T18:15:46;16.10;43.70
14604;DHT22;7388;51.078;13.740;2022-09-29T18:18:14;16.10;44.00
14604;DHT22;7388;51.078;13.740;2022-09-29T18:20:41;16.10;44.00
14604;DHT22;7388;51.078;13.740;2022-09-29T18:23:09;16.10;44.10
14604;DHT22;7388;51.078;13.740;2022-09-29T18:25:35;16.10;44.30
14604;DHT22;7388;51.078;13.740;2022-09-29T18:28:01;16.00;44.40
14604;DHT22;7388;51.078;13.740;2022-09-29T18:30:32;15.90;44.40
14604;DHT22;7388;51.078;13.740;2022-09-29T18:33:01;16.00;44.40
14604;DHT22;7388;51.078;13.740;2022-09-29T18:35:30;16.00;44.50
14604;DHT22;7388;51.078;13.740;2022-09-29T18:37:56;16.00;44.60
14604;DHT22;7388;51.078;13.740;2022-09-29T18:40:23;16.00;44.50
14604;DHT22;7388;51.078;13.740;2022-09-29T18:42:51;16.00;44.50
14604;DHT22;7388;51.078;13.740;2022-09-29T18:45:19;16.10;44.80
14604;DHT22;7388;51.078;13.740;2022-09-29T18:47:52;16.10;45.00
14604;DHT22;7388;51.078;13.740;2022-09-29T18:50:27;16.10;45.00
14604;DHT22;7388;51.078;13.740;2022-09-29T18:52:54;16.10;45.00
14604;DHT22;7388;51.078;13.740;2022-09-29T18:55:22;16.10;45.20
14604;DHT22;7388;51.078;13.740;2022-09-29T18:57:49;16.10;45.30
14604;DHT22;7388;51.078;13.740;2022-09-29T19:00:17;16.10;45.30
14604;DHT22;7388;51.078;13.740;2022-09-29T19:02:44;16.10;45.20
14604;DHT22;7388;51.078;13.740;2022-09-29T19:05:16;16.10;45.30
14604;DHT22;7388;51.078;13.740;2022-09-29T19:07:47;16.10;45.50
14604;DHT22;7388;51.078;13.740;2022-09-29T19:10:15;16.00;45.50
14604;DHT22;7388;51.078;13.740;2022-09-29T19:12:42;16.00;45.30
14604;DHT22;7388;51.078;13.740;2022-09-29T19:15:20;16.10;45.40
14604;DHT22;7388;51.078;13.740;2022-09-29T19:17:47;16.10;45.50
14604;DHT22;7388;51.078;13.740;2022-09-29T19:20:15;16.10;45.60
14604;DHT22;7388;51.078;13.740;2022-09-29T19:22:42;16.10;45.80
14604;DHT22;7388;51.078;13.740;2022-09-29T19:25:16;16.10;45.80